Pennsylvania — WAPZ — position and weather

sailwx.info

Track history (hours):
 
Tides and Currents Weather Stations Pressure Air Temp Water Temp Dewpoint Dewpoint Depression Visibility Wind Speed Wind Dir Waves Ship Positions

Pennsylvania

Owner: Crowley Petroleum Services, Jacksonville, FL. More information available from US FCC via Universal Licensing System and Coast Guard Vessel Documentation Center.

Last reported at 2018-Jun-23 13:34 UTC. Time now 2018-Jun-25 05:54 UTC.
Position N 29°15' W 093°39'.

Length 183 m; draft 11.2 m.

Type: Tanker. MMSI: 338617000.

Date/timePositionNaut miles runAvg speedWind from/ knotsBaromVisibWave heightAir tempDewpointWater temp
2018-Jun-23 13:34N 29°15' W 093°39'211.7
2018-Jun-23 13:24N 29°16' W 093°39'511.8
2018-Jun-23 13:00N 29°21' W 093°40'4 9.0
2018-Jun-23 12:30N 29°26' W 093°40'510.2
2018-Jun-23 12:00N 29°30' W 093°42'611.8
2018-Jun-23 11:31N 29°34' W 093°47'510.9
2018-Jun-23 11:00N 29°39' W 093°50'5 9.8
2018-Jun-23 10:30N 29°44' W 093°52'4 7.6
2018-Jun-23 10:00N 29°46' W 093°55'4 7.3
2018-Jun-23 09:30N 29°49' W 093°58'3 5.7
2018-Jun-23 09:01N 29°52' W 093°56'3 6.0
2018-Jun-23 08:30N 29°54' W 093°54'3 5.0
2018-Jun-23 08:01N 29°56' W 093°52'3 5.5
2018-Jun-23 07:31N 29°59' W 093°52'3 6.3
2018-Jun-23 07:01N 29°59' W 093°56'2 4.7
2018-Jun-23 06:30N 30°01' W 093°58'2 4.2
2018-Jun-23 06:00N 30°01' W 094°01'2 3.7
2018-Jun-23 05:31N 30°02' W 094°02'0 0.0
2018-Jun-23 04:55N 30°02' W 094°02'0 0.0
2018-Jun-23 04:25N 30°02' W 094°02'0 0.0
2018-Jun-23 03:58N 30°02' W 094°02'0 0.0
2018-Jun-23 03:28N 30°02' W 094°02'0 0.0
2018-Jun-23 02:55N 30°02' W 094°02'0 0.0
2018-Jun-23 02:28N 30°02' W 094°02'0 0.0
2018-Jun-23 01:58N 30°02' W 094°02'0 0.0
2018-Jun-23 01:28N 30°02' W 094°02'0 0.0
2018-Jun-23 00:58N 30°02' W 094°02'0 0.0
2018-Jun-23 00:28N 30°02' W 094°02'0 0.0
2018-Jun-22 23:58N 30°02' W 094°02'0 0.0
2018-Jun-22 23:28N 30°02' W 094°02'0 0.0
2018-Jun-22 22:58N 30°02' W 094°02'0 0.0
2018-Jun-22 22:28N 30°02' W 094°02'0 0.0
2018-Jun-22 21:58N 30°02' W 094°02'0 0.0
2018-Jun-22 21:28N 30°02' W 094°02'0 0.0
2018-Jun-22 20:58N 30°02' W 094°02'0 0.0
2018-Jun-22 20:28N 30°02' W 094°02'0 0.0
2018-Jun-22 19:58N 30°02' W 094°02'0 0.0
2018-Jun-22 19:25N 30°02' W 094°02'0 0.0
2018-Jun-22 18:58N 30°02' W 094°02'0 0.0
2018-Jun-22 18:28N 30°02' W 094°02'0 0.0
2018-Jun-22 17:55N 30°02' W 094°02'0 0.0
2018-Jun-22 17:28N 30°02' W 094°02'0 0.0
2018-Jun-22 16:58N 30°02' W 094°02'0 0.0
2018-Jun-22 16:28N 30°02' W 094°02'0 0.0
2018-Jun-22 15:58N 30°02' W 094°02'0 0.0
2018-Jun-22 15:28N 30°02' W 094°02'0 0.0
2018-Jun-22 14:58N 30°02' W 094°02'0 0.0
2018-Jun-22 14:28N 30°02' W 094°02'0 0.0
2018-Jun-22 13:58N 30°02' W 094°02'0 0.0
2018-Jun-22 13:28N 30°02' W 094°02'0 0.0
2018-Jun-22 12:58N 30°02' W 094°02'0 0.0
2018-Jun-22 12:28N 30°02' W 094°02'0 0.0
2018-Jun-22 11:58N 30°02' W 094°02'0 0.0
2018-Jun-22 11:28N 30°02' W 094°02'0 0.0
2018-Jun-22 10:58N 30°02' W 094°02'0 0.0
2018-Jun-22 10:25N 30°02' W 094°02'0 0.0
2018-Jun-22 09:58N 30°02' W 094°02'0 0.0
2018-Jun-22 09:28N 30°02' W 094°02'0 0.0
2018-Jun-22 08:58N 30°02' W 094°02'0 0.0
2018-Jun-22 08:28N 30°02' W 094°02'0 0.0
2018-Jun-22 07:58N 30°02' W 094°02'0 0.0
2018-Jun-22 07:28N 30°02' W 094°02'0 0.0
2018-Jun-22 06:58N 30°02' W 094°02'0 0.0
2018-Jun-22 06:28N 30°02' W 094°02'0 0.0
2018-Jun-22 05:58N 30°02' W 094°02'0 0.0
2018-Jun-22 05:28N 30°02' W 094°02'0 0.0
2018-Jun-22 04:58N 30°02' W 094°02'0 0.0
2018-Jun-22 04:25N 30°02' W 094°02'0 0.0
2018-Jun-22 03:58N 30°02' W 094°02'0 0.0
2018-Jun-22 03:28N 30°02' W 094°02'0 0.0
2018-Jun-22 02:58N 30°02' W 094°02'0 0.0
2018-Jun-22 02:28N 30°02' W 094°02'0 0.0
2018-Jun-22 01:58N 30°02' W 094°02'0 0.0
2018-Jun-22 01:28N 30°02' W 094°02'0 0.0
2018-Jun-22 00:58N 30°02' W 094°02'0 0.0
2018-Jun-22 00:25N 30°02' W 094°02'0 0.0
2018-Jun-21 23:58N 30°02' W 094°02'0 0.0
2018-Jun-21 23:28N 30°02' W 094°02'0 0.0
2018-Jun-21 22:58N 30°02' W 094°02'0 0.0
2018-Jun-21 22:28N 30°02' W 094°02'0 0.0
2018-Jun-21 21:58N 30°02' W 094°02'0 0.0
2018-Jun-21 21:28N 30°02' W 094°02'0 0.0
2018-Jun-21 20:58N 30°02' W 094°02'0 0.0
2018-Jun-21 20:28N 30°02' W 094°02'0 0.0
2018-Jun-21 19:58N 30°02' W 094°02'0 0.0
2018-Jun-21 19:28N 30°02' W 094°02'0 0.0
2018-Jun-21 18:58N 30°02' W 094°02'0 0.0
2018-Jun-21 18:28N 30°02' W 094°02'0 0.0
2018-Jun-21 17:58N 30°02' W 094°02'0 0.0
2018-Jun-21 17:28N 30°02' W 094°02'0 0.0
2018-Jun-21 16:58N 30°02' W 094°02'0 0.0
2018-Jun-21 16:28N 30°02' W 094°02'0 0.0
2018-Jun-21 15:58N 30°02' W 094°02'0 0.0
2018-Jun-21 15:28N 30°02' W 094°02'0 0.0
2018-Jun-21 14:58N 30°02' W 094°02'0 0.0
2018-Jun-21 14:28N 30°02' W 094°02'0 0.0
2018-Jun-21 13:58N 30°02' W 094°02'0 0.0
2018-Jun-21 13:28N 30°02' W 094°02'0 0.0
2018-Jun-21 12:58N 30°02' W 094°02'0 0.0
2018-Jun-21 12:28N 30°02' W 094°02'0 0.0
2018-Jun-21 11:58N 30°02' W 094°02'0 0.0
2018-Jun-21 11:28N 30°02' W 094°02'0 0.0
2018-Jun-21 10:58N 30°02' W 094°02'0 0.0
2018-Jun-21 10:28N 30°02' W 094°02'0 0.0
2018-Jun-21 09:58N 30°02' W 094°02'0 0.0
2018-Jun-21 09:28N 30°02' W 094°02'0 0.0
2018-Jun-21 08:52N 30°02' W 094°02'0 0.0
2018-Jun-21 08:28N 30°02' W 094°02'0 0.0
2018-Jun-21 07:58N 30°02' W 094°02'0 0.0
2018-Jun-21 07:28N 30°02' W 094°02'0 0.0
2018-Jun-21 06:56N 30°02' W 094°02'0 0.9
2018-Jun-21 06:31N 30°02' W 094°02'2 4.3
2018-Jun-21 06:01N 30°01' W 093°60'3 5.8
2018-Jun-21 05:31N 29°60' W 093°57'3 6.9
2018-Jun-21 05:00N 29°59' W 093°53'3 5.4
2018-Jun-21 04:30N 29°56' W 093°52'4 8.2
2018-Jun-21 04:00N 29°53' W 093°55'3 6.7
2018-Jun-21 03:30N 29°50' W 093°57'4 7.3
2018-Jun-21 03:00N 29°47' W 093°57'5 9.1
2018-Jun-21 02:30N 29°44' W 093°52'5 9.2
2018-Jun-21 02:00N 29°40' W 093°50'612.3
2018-Jun-21 01:31N 29°35' W 093°47'510.7
2018-Jun-21 01:01N 29°34' W 093°41'0 0.7
2018-Jun-21 00:29N 29°34' W 093°41'0 0.0
2018-Jun-20 23:59N 29°34' W 093°41'0 0.0
2018-Jun-20 23:26N 29°34' W 093°41'0 0.1
2018-Jun-20 22:59N 29°34' W 093°41'0 0.0
2018-Jun-20 22:29N 29°34' W 093°41'0 0.0
2018-Jun-20 21:59N 29°34' W 093°41'0 0.0
2018-Jun-20 21:29N 29°34' W 093°41'0 0.0
2018-Jun-20 20:59N 29°34' W 093°41'0 0.0
2018-Jun-20 20:29N 29°34' W 093°41'0 0.0
2018-Jun-20 19:59N 29°34' W 093°41'0 0.0
2018-Jun-20 19:29N 29°34' W 093°41'0 0.0
2018-Jun-20 18:59N 29°34' W 093°41'0 0.0
2018-Jun-20 18:29N 29°34' W 093°41'0 0.0
2018-Jun-20 17:59N 29°34' W 093°41'0 0.0
2018-Jun-20 17:29N 29°34' W 093°41'0 0.0
2018-Jun-20 16:56N 29°34' W 093°41'0 0.0
2018-Jun-20 16:23N 29°34' W 093°41'0 0.0
2018-Jun-20 15:59N 29°34' W 093°41'0 0.0
2018-Jun-20 15:29N 29°34' W 093°41'0 0.0
2018-Jun-20 14:59N 29°34' W 093°41'0 0.0
2018-Jun-20 14:29N 29°34' W 093°41'0 0.0
2018-Jun-20 13:59N 29°34' W 093°41'0 0.0
2018-Jun-20 13:29N 29°34' W 093°41'0 0.0
2018-Jun-20 12:56N 29°34' W 093°41'0 0.0
2018-Jun-20 12:29N 29°34' W 093°41'0 0.0
2018-Jun-20 11:56N 29°34' W 093°41'0 0.0
2018-Jun-20 11:29N 29°34' W 093°41'0 0.0
2018-Jun-20 10:59N 29°34' W 093°41'0 0.0
2018-Jun-20 10:26N 29°34' W 093°41'0 0.0
2018-Jun-20 09:59N 29°34' W 093°41'0 0.0
2018-Jun-20 09:20N 29°34' W 093°41'0 0.0
2018-Jun-20 08:59N 29°34' W 093°41'0 0.0
2018-Jun-20 08:29N 29°34' W 093°41'0 0.0
2018-Jun-20 07:59N 29°34' W 093°41'0 0.0
2018-Jun-20 07:29N 29°34' W 093°41'0 0.0
2018-Jun-20 06:59N 29°34' W 093°41'0 0.0
2018-Jun-20 06:29N 29°34' W 093°41'0 0.0
2018-Jun-20 05:59N 29°34' W 093°41'0 0.0
2018-Jun-20 05:29N 29°34' W 093°41'0 0.0
2018-Jun-20 04:59N 29°34' W 093°41'0 0.0
2018-Jun-20 04:26N 29°34' W 093°41'0 0.0
2018-Jun-20 03:59N 29°34' W 093°41'0 0.0
2018-Jun-20 03:29N 29°34' W 093°41'0 0.0
2018-Jun-20 02:59N 29°34' W 093°41'0 0.0
2018-Jun-20 02:29N 29°34' W 093°41'0 0.0
2018-Jun-20 01:59N 29°34' W 093°41'0 0.0
2018-Jun-20 01:29N 29°34' W 093°41'0 0.0
2018-Jun-20 00:59N 29°34' W 093°41'0 0.0
2018-Jun-20 00:29N 29°34' W 093°41'0 0.0
2018-Jun-19 23:59N 29°34' W 093°41'0 0.0
2018-Jun-19 23:29N 29°34' W 093°41'0 0.0
2018-Jun-19 22:59N 29°34' W 093°41'0 0.0
2018-Jun-19 22:29N 29°34' W 093°41'0 0.0
2018-Jun-19 21:56N 29°34' W 093°41'0 0.0
2018-Jun-19 21:29N 29°34' W 093°41'0 0.0
2018-Jun-19 20:59N 29°34' W 093°41'0 0.0
2018-Jun-19 20:23N 29°34' W 093°41'0 0.0
2018-Jun-19 19:59N 29°34' W 093°41'0 0.0
2018-Jun-19 19:29N 29°34' W 093°41'0 0.0
2018-Jun-19 18:59N 29°34' W 093°41'0 0.0
2018-Jun-19 18:26N 29°34' W 093°41'0 0.1
2018-Jun-19 17:59N 29°34' W 093°41'0 0.0
2018-Jun-19 17:29N 29°34' W 093°41'0 0.0
2018-Jun-19 16:59N 29°34' W 093°41'0 0.1
2018-Jun-19 16:26N 29°34' W 093°41'0 0.0
2018-Jun-19 15:59N 29°34' W 093°41'0 0.0
2018-Jun-19 15:29N 29°34' W 093°41'0 0.0
2018-Jun-19 14:59N 29°34' W 093°41'0 0.0
2018-Jun-19 14:26N 29°34' W 093°41'0 0.0
2018-Jun-19 13:56N 29°34' W 093°41'0 0.0
2018-Jun-19 13:26N 29°34' W 093°41'0 0.0
2018-Jun-19 12:59N 29°34' W 093°41'0 0.0
2018-Jun-19 12:29N 29°34' W 093°41'0 0.0
2018-Jun-19 11:56N 29°34' W 093°41'0 0.0
2018-Jun-19 11:29N 29°34' W 093°41'0 0.0
2018-Jun-19 10:59N 29°34' W 093°41'0 0.0
2018-Jun-19 10:26N 29°34' W 093°41'0 0.0
2018-Jun-19 09:59N 29°34' W 093°41'0 0.0
2018-Jun-19 09:29N 29°34' W 093°41'0 0.0
2018-Jun-19 08:59N 29°34' W 093°41'0 0.0
2018-Jun-19 08:29N 29°34' W 093°41'0 0.0
2018-Jun-19 07:59N 29°34' W 093°41'0 0.0
2018-Jun-19 07:29N 29°34' W 093°41'0 0.0
2018-Jun-19 06:59N 29°34' W 093°41'0 0.0
2018-Jun-19 06:26N 29°34' W 093°41'0 0.0
2018-Jun-19 05:56N 29°34' W 093°41'0 0.0
2018-Jun-19 05:29N 29°34' W 093°41'0 0.0
2018-Jun-19 04:56N 29°34' W 093°41'0 0.0
2018-Jun-19 04:28N 29°34' W 093°41'0 0.0
2018-Jun-19 03:59N 29°34' W 093°41'0 0.0
2018-Jun-19 03:25N 29°34' W 093°41'0 0.0
2018-Jun-19 02:59N 29°34' W 093°41'0 0.0
2018-Jun-19 02:29N 29°34' W 093°41'0 0.0
2018-Jun-19 01:53N 29°34' W 093°41'0 0.0
2018-Jun-19 01:29N 29°34' W 093°41'0 0.0
2018-Jun-19 00:59N 29°34' W 093°41'0 0.0
2018-Jun-19 00:29N 29°34' W 093°41'0 0.0
2018-Jun-18 23:59N 29°34' W 093°41'0 0.1
2018-Jun-18 23:29N 29°34' W 093°41'0 0.0
2018-Jun-18 22:59N 29°34' W 093°41'0 0.0
2018-Jun-18 22:29N 29°34' W 093°41'0 0.1
2018-Jun-18 21:59N 29°34' W 093°41'0 0.0
2018-Jun-18 21:29N 29°34' W 093°41'0 0.2
2018-Jun-18 20:59N 29°34' W 093°41'0 0.1
2018-Jun-18 20:25N 29°34' W 093°41'0 0.0
2018-Jun-18 19:59N 29°34' W 093°41'0 0.0
2018-Jun-18 19:28N 29°34' W 093°41'0 0.0
2018-Jun-18 18:59N 29°34' W 093°41'0 0.0
2018-Jun-18 18:29N 29°34' W 093°41'0 0.0
2018-Jun-18 17:59N 29°34' W 093°41'0 0.0
2018-Jun-18 17:28N 29°34' W 093°41'0 0.0
2018-Jun-18 16:59N 29°34' W 093°41'0 0.0
2018-Jun-18 16:28N 29°34' W 093°41'0 0.0
2018-Jun-18 15:59N 29°34' W 093°41'0 0.0
2018-Jun-18 15:28N 29°34' W 093°41'0 0.0
2018-Jun-18 14:59N 29°34' W 093°41'0 0.0
2018-Jun-18 14:28N 29°34' W 093°41'1 2.3
2018-Jun-18 14:01N 29°34' W 093°42'3 5.6
2018-Jun-18 13:31N 29°32' W 093°43'510.6
2018-Jun-18 13:00N 29°27' W 093°40'711.7
2018-Jun-18 12:25N 29°20' W 093°39'4 9.8
2018-Jun-18 12:00N 29°16' W 093°39'  
Track history (hours):
 
Tides and Currents Weather Stations Pressure Air Temp Water Temp Dewpoint Dewpoint Depression Visibility Wind Speed Wind Dir Waves Ship Positions

Pennsylvania

Owner: Crowley Petroleum Services, Jacksonville, FL. More information available from US FCC via Universal Licensing System and Coast Guard Vessel Documentation Center.

Last reported at 2018-Jun-23 13:34 UTC. Time now 2018-Jun-25 05:54 UTC.
Position N 29°15' W 093°39'.

Length 183 m; draft 11.2 m.

Type: Tanker. MMSI: 338617000.

Date/timePositionNaut miles runAvg speedWind from/ knotsBaromVisibWave heightAir tempDewpointWater temp
2018-Jun-23 13:34N 29°15' W 093°39'211.7
2018-Jun-23 13:24N 29°16' W 093°39'511.8
2018-Jun-23 13:00N 29°21' W 093°40'4 9.0
2018-Jun-23 12:30N 29°26' W 093°40'510.2
2018-Jun-23 12:00N 29°30' W 093°42'611.8
2018-Jun-23 11:31N 29°34' W 093°47'510.9
2018-Jun-23 11:00N 29°39' W 093°50'5 9.8
2018-Jun-23 10:30N 29°44' W 093°52'4 7.6
2018-Jun-23 10:00N 29°46' W 093°55'4 7.3
2018-Jun-23 09:30N 29°49' W 093°58'3 5.7
2018-Jun-23 09:01N 29°52' W 093°56'3 6.0
2018-Jun-23 08:30N 29°54' W 093°54'3 5.0
2018-Jun-23 08:01N 29°56' W 093°52'3 5.5
2018-Jun-23 07:31N 29°59' W 093°52'3 6.3
2018-Jun-23 07:01N 29°59' W 093°56'2 4.7
2018-Jun-23 06:30N 30°01' W 093°58'2 4.2
2018-Jun-23 06:00N 30°01' W 094°01'2 3.7
2018-Jun-23 05:31N 30°02' W 094°02'0 0.0
2018-Jun-23 04:55N 30°02' W 094°02'0 0.0
2018-Jun-23 04:25N 30°02' W 094°02'0 0.0
2018-Jun-23 03:58N 30°02' W 094°02'0 0.0
2018-Jun-23 03:28N 30°02' W 094°02'0 0.0
2018-Jun-23 02:55N 30°02' W 094°02'0 0.0
2018-Jun-23 02:28N 30°02' W 094°02'0 0.0
2018-Jun-23 01:58N 30°02' W 094°02'0 0.0
2018-Jun-23 01:28N 30°02' W 094°02'0 0.0
2018-Jun-23 00:58N 30°02' W 094°02'0 0.0
2018-Jun-23 00:28N 30°02' W 094°02'0 0.0
2018-Jun-22 23:58N 30°02' W 094°02'0 0.0
2018-Jun-22 23:28N 30°02' W 094°02'0 0.0
2018-Jun-22 22:58N 30°02' W 094°02'0 0.0
2018-Jun-22 22:28N 30°02' W 094°02'0 0.0
2018-Jun-22 21:58N 30°02' W 094°02'0 0.0
2018-Jun-22 21:28N 30°02' W 094°02'0 0.0
2018-Jun-22 20:58N 30°02' W 094°02'0 0.0
2018-Jun-22 20:28N 30°02' W 094°02'0 0.0
2018-Jun-22 19:58N 30°02' W 094°02'0 0.0
2018-Jun-22 19:25N 30°02' W 094°02'0 0.0
2018-Jun-22 18:58N 30°02' W 094°02'0 0.0
2018-Jun-22 18:28N 30°02' W 094°02'0 0.0
2018-Jun-22 17:55N 30°02' W 094°02'0 0.0
2018-Jun-22 17:28N 30°02' W 094°02'0 0.0
2018-Jun-22 16:58N 30°02' W 094°02'0 0.0
2018-Jun-22 16:28N 30°02' W 094°02'0 0.0
2018-Jun-22 15:58N 30°02' W 094°02'0 0.0
2018-Jun-22 15:28N 30°02' W 094°02'0 0.0
2018-Jun-22 14:58N 30°02' W 094°02'0 0.0
2018-Jun-22 14:28N 30°02' W 094°02'0 0.0
2018-Jun-22 13:58N 30°02' W 094°02'0 0.0
2018-Jun-22 13:28N 30°02' W 094°02'0 0.0
2018-Jun-22 12:58N 30°02' W 094°02'0 0.0
2018-Jun-22 12:28N 30°02' W 094°02'0 0.0
2018-Jun-22 11:58N 30°02' W 094°02'0 0.0
2018-Jun-22 11:28N 30°02' W 094°02'0 0.0
2018-Jun-22 10:58N 30°02' W 094°02'0 0.0
2018-Jun-22 10:25N 30°02' W 094°02'0 0.0
2018-Jun-22 09:58N 30°02' W 094°02'0 0.0
2018-Jun-22 09:28N 30°02' W 094°02'0 0.0
2018-Jun-22 08:58N 30°02' W 094°02'0 0.0
2018-Jun-22 08:28N 30°02' W 094°02'0 0.0
2018-Jun-22 07:58N 30°02' W 094°02'0 0.0
2018-Jun-22 07:28N 30°02' W 094°02'0 0.0
2018-Jun-22 06:58N 30°02' W 094°02'0 0.0
2018-Jun-22 06:28N 30°02' W 094°02'0 0.0
2018-Jun-22 05:58N 30°02' W 094°02'0 0.0
2018-Jun-22 05:28N 30°02' W 094°02'0 0.0
2018-Jun-22 04:58N 30°02' W 094°02'0 0.0
2018-Jun-22 04:25N 30°02' W 094°02'0 0.0
2018-Jun-22 03:58N 30°02' W 094°02'0 0.0
2018-Jun-22 03:28N 30°02' W 094°02'0 0.0
2018-Jun-22 02:58N 30°02' W 094°02'0 0.0
2018-Jun-22 02:28N 30°02' W 094°02'0 0.0
2018-Jun-22 01:58N 30°02' W 094°02'0 0.0
2018-Jun-22 01:28N 30°02' W 094°02'0 0.0
2018-Jun-22 00:58N 30°02' W 094°02'0 0.0
2018-Jun-22 00:25N 30°02' W 094°02'0 0.0
2018-Jun-21 23:58N 30°02' W 094°02'0 0.0
2018-Jun-21 23:28N 30°02' W 094°02'0 0.0
2018-Jun-21 22:58N 30°02' W 094°02'0 0.0
2018-Jun-21 22:28N 30°02' W 094°02'0 0.0
2018-Jun-21 21:58N 30°02' W 094°02'0 0.0
2018-Jun-21 21:28N 30°02' W 094°02'0 0.0
2018-Jun-21 20:58N 30°02' W 094°02'0 0.0
2018-Jun-21 20:28N 30°02' W 094°02'0 0.0
2018-Jun-21 19:58N 30°02' W 094°02'0 0.0
2018-Jun-21 19:28N 30°02' W 094°02'0 0.0
2018-Jun-21 18:58N 30°02' W 094°02'0 0.0
2018-Jun-21 18:28N 30°02' W 094°02'0 0.0
2018-Jun-21 17:58N 30°02' W 094°02'0 0.0
2018-Jun-21 17:28N 30°02' W 094°02'0 0.0
2018-Jun-21 16:58N 30°02' W 094°02'0 0.0
2018-Jun-21 16:28N 30°02' W 094°02'0 0.0
2018-Jun-21 15:58N 30°02' W 094°02'0 0.0
2018-Jun-21 15:28N 30°02' W 094°02'0 0.0
2018-Jun-21 14:58N 30°02' W 094°02'0 0.0
2018-Jun-21 14:28N 30°02' W 094°02'0 0.0
2018-Jun-21 13:58N 30°02' W 094°02'0 0.0
2018-Jun-21 13:28N 30°02' W 094°02'0 0.0
2018-Jun-21 12:58N 30°02' W 094°02'0 0.0
2018-Jun-21 12:28N 30°02' W 094°02'0 0.0
2018-Jun-21 11:58N 30°02' W 094°02'0 0.0
2018-Jun-21 11:28N 30°02' W 094°02'0 0.0
2018-Jun-21 10:58N 30°02' W 094°02'0 0.0
2018-Jun-21 10:28N 30°02' W 094°02'0 0.0
2018-Jun-21 09:58N 30°02' W 094°02'0 0.0
2018-Jun-21 09:28N 30°02' W 094°02'0 0.0
2018-Jun-21 08:52N 30°02' W 094°02'0 0.0
2018-Jun-21 08:28N 30°02' W 094°02'0 0.0
2018-Jun-21 07:58N 30°02' W 094°02'0 0.0
2018-Jun-21 07:28N 30°02' W 094°02'0 0.0
2018-Jun-21 06:56N 30°02' W 094°02'0 0.9
2018-Jun-21 06:31N 30°02' W 094°02'2 4.3
2018-Jun-21 06:01N 30°01' W 093°60'3 5.8
2018-Jun-21 05:31N 29°60' W 093°57'3 6.9
2018-Jun-21 05:00N 29°59' W 093°53'3 5.4
2018-Jun-21 04:30N 29°56' W 093°52'4 8.2
2018-Jun-21 04:00N 29°53' W 093°55'3 6.7
2018-Jun-21 03:30N 29°50' W 093°57'4 7.3
2018-Jun-21 03:00N 29°47' W 093°57'5 9.1
2018-Jun-21 02:30N 29°44' W 093°52'5 9.2
2018-Jun-21 02:00N 29°40' W 093°50'612.3
2018-Jun-21 01:31N 29°35' W 093°47'510.7
2018-Jun-21 01:01N 29°34' W 093°41'0 0.7
2018-Jun-21 00:29N 29°34' W 093°41'0 0.0
2018-Jun-20 23:59N 29°34' W 093°41'0 0.0
2018-Jun-20 23:26N 29°34' W 093°41'0 0.1
2018-Jun-20 22:59N 29°34' W 093°41'0 0.0
2018-Jun-20 22:29N 29°34' W 093°41'0 0.0
2018-Jun-20 21:59N 29°34' W 093°41'0 0.0
2018-Jun-20 21:29N 29°34' W 093°41'0 0.0
2018-Jun-20 20:59N 29°34' W 093°41'0 0.0
2018-Jun-20 20:29N 29°34' W 093°41'0 0.0
2018-Jun-20 19:59N 29°34' W 093°41'0 0.0
2018-Jun-20 19:29N 29°34' W 093°41'0 0.0
2018-Jun-20 18:59N 29°34' W 093°41'0 0.0
2018-Jun-20 18:29N 29°34' W 093°41'0 0.0
2018-Jun-20 17:59N 29°34' W 093°41'0 0.0
2018-Jun-20 17:29N 29°34' W 093°41'0 0.0
2018-Jun-20 16:56N 29°34' W 093°41'0 0.0
2018-Jun-20 16:23N 29°34' W 093°41'0 0.0
2018-Jun-20 15:59N 29°34' W 093°41'0 0.0
2018-Jun-20 15:29N 29°34' W 093°41'0 0.0
2018-Jun-20 14:59N 29°34' W 093°41'0 0.0
2018-Jun-20 14:29N 29°34' W 093°41'0 0.0
2018-Jun-20 13:59N 29°34' W 093°41'0 0.0
2018-Jun-20 13:29N 29°34' W 093°41'0 0.0
2018-Jun-20 12:56N 29°34' W 093°41'0 0.0
2018-Jun-20 12:29N 29°34' W 093°41'0 0.0
2018-Jun-20 11:56N 29°34' W 093°41'0 0.0
2018-Jun-20 11:29N 29°34' W 093°41'0 0.0
2018-Jun-20 10:59N 29°34' W 093°41'0 0.0
2018-Jun-20 10:26N 29°34' W 093°41'0 0.0
2018-Jun-20 09:59N 29°34' W 093°41'0 0.0
2018-Jun-20 09:20N 29°34' W 093°41'0 0.0
2018-Jun-20 08:59N 29°34' W 093°41'0 0.0
2018-Jun-20 08:29N 29°34' W 093°41'0 0.0
2018-Jun-20 07:59N 29°34' W 093°41'0 0.0
2018-Jun-20 07:29N 29°34' W 093°41'0 0.0
2018-Jun-20 06:59N 29°34' W 093°41'0 0.0
2018-Jun-20 06:29N 29°34' W 093°41'0 0.0
2018-Jun-20 05:59N 29°34' W 093°41'0 0.0
2018-Jun-20 05:29N 29°34' W 093°41'0 0.0
2018-Jun-20 04:59N 29°34' W 093°41'0 0.0
2018-Jun-20 04:26N 29°34' W 093°41'0 0.0
2018-Jun-20 03:59N 29°34' W 093°41'0 0.0
2018-Jun-20 03:29N 29°34' W 093°41'0 0.0
2018-Jun-20 02:59N 29°34' W 093°41'0 0.0
2018-Jun-20 02:29N 29°34' W 093°41'0 0.0
2018-Jun-20 01:59N 29°34' W 093°41'0 0.0
2018-Jun-20 01:29N 29°34' W 093°41'0 0.0
2018-Jun-20 00:59N 29°34' W 093°41'0 0.0
2018-Jun-20 00:29N 29°34' W 093°41'0 0.0
2018-Jun-19 23:59N 29°34' W 093°41'0 0.0
2018-Jun-19 23:29N 29°34' W 093°41'0 0.0
2018-Jun-19 22:59N 29°34' W 093°41'0 0.0
2018-Jun-19 22:29N 29°34' W 093°41'0 0.0
2018-Jun-19 21:56N 29°34' W 093°41'0 0.0
2018-Jun-19 21:29N 29°34' W 093°41'0 0.0
2018-Jun-19 20:59N 29°34' W 093°41'0 0.0
2018-Jun-19 20:23N 29°34' W 093°41'0 0.0
2018-Jun-19 19:59N 29°34' W 093°41'0 0.0
2018-Jun-19 19:29N 29°34' W 093°41'0 0.0
2018-Jun-19 18:59N 29°34' W 093°41'0 0.0
2018-Jun-19 18:26N 29°34' W 093°41'0 0.1
2018-Jun-19 17:59N 29°34' W 093°41'0 0.0
2018-Jun-19 17:29N 29°34' W 093°41'0 0.0
2018-Jun-19 16:59N 29°34' W 093°41'0 0.1
2018-Jun-19 16:26N 29°34' W 093°41'0 0.0
2018-Jun-19 15:59N 29°34' W 093°41'0 0.0
2018-Jun-19 15:29N 29°34' W 093°41'0 0.0
2018-Jun-19 14:59N 29°34' W 093°41'0 0.0
2018-Jun-19 14:26N 29°34' W 093°41'0 0.0
2018-Jun-19 13:56N 29°34' W 093°41'0 0.0
2018-Jun-19 13:26N 29°34' W 093°41'0 0.0
2018-Jun-19 12:59N 29°34' W 093°41'0 0.0
2018-Jun-19 12:29N 29°34' W 093°41'0 0.0
2018-Jun-19 11:56N 29°34' W 093°41'0 0.0
2018-Jun-19 11:29N 29°34' W 093°41'0 0.0
2018-Jun-19 10:59N 29°34' W 093°41'0 0.0
2018-Jun-19 10:26N 29°34' W 093°41'0 0.0
2018-Jun-19 09:59N 29°34' W 093°41'0 0.0
2018-Jun-19 09:29N 29°34' W 093°41'0 0.0
2018-Jun-19 08:59N 29°34' W 093°41'0 0.0
2018-Jun-19 08:29N 29°34' W 093°41'0 0.0
2018-Jun-19 07:59N 29°34' W 093°41'0 0.0
2018-Jun-19 07:29N 29°34' W 093°41'0 0.0
2018-Jun-19 06:59N 29°34' W 093°41'0 0.0
2018-Jun-19 06:26N 29°34' W 093°41'0 0.0
2018-Jun-19 05:56N 29°34' W 093°41'0 0.0
2018-Jun-19 05:29N 29°34' W 093°41'0 0.0
2018-Jun-19 04:56N 29°34' W 093°41'0 0.0
2018-Jun-19 04:28N 29°34' W 093°41'0 0.0
2018-Jun-19 03:59N 29°34' W 093°41'0 0.0
2018-Jun-19 03:25N 29°34' W 093°41'0 0.0
2018-Jun-19 02:59N 29°34' W 093°41'0 0.0
2018-Jun-19 02:29N 29°34' W 093°41'0 0.0
2018-Jun-19 01:53N 29°34' W 093°41'0 0.0
2018-Jun-19 01:29N 29°34' W 093°41'0 0.0
2018-Jun-19 00:59N 29°34' W 093°41'0 0.0
2018-Jun-19 00:29N 29°34' W 093°41'0 0.0
2018-Jun-18 23:59N 29°34' W 093°41'0 0.1
2018-Jun-18 23:29N 29°34' W 093°41'0 0.0
2018-Jun-18 22:59N 29°34' W 093°41'0 0.0
2018-Jun-18 22:29N 29°34' W 093°41'0 0.1
2018-Jun-18 21:59N 29°34' W 093°41'0 0.0
2018-Jun-18 21:29N 29°34' W 093°41'0 0.2
2018-Jun-18 20:59N 29°34' W 093°41'0 0.1
2018-Jun-18 20:25N 29°34' W 093°41'0 0.0
2018-Jun-18 19:59N 29°34' W 093°41'0 0.0
2018-Jun-18 19:28N 29°34' W 093°41'0 0.0
2018-Jun-18 18:59N 29°34' W 093°41'0 0.0
2018-Jun-18 18:29N 29°34' W 093°41'0 0.0
2018-Jun-18 17:59N 29°34' W 093°41'0 0.0
2018-Jun-18 17:28N 29°34' W 093°41'0 0.0
2018-Jun-18 16:59N 29°34' W 093°41'0 0.0
2018-Jun-18 16:28N 29°34' W 093°41'0 0.0
2018-Jun-18 15:59N 29°34' W 093°41'0 0.0
2018-Jun-18 15:28N 29°34' W 093°41'0 0.0
2018-Jun-18 14:59N 29°34' W 093°41'0 0.0
2018-Jun-18 14:28N 29°34' W 093°41'1 2.3
2018-Jun-18 14:01N 29°34' W 093°42'3 5.6
2018-Jun-18 13:31N 29°32' W 093°43'510.6
2018-Jun-18 13:00N 29°27' W 093°40'711.7
2018-Jun-18 12:25N 29°20' W 093°39'4 9.8
2018-Jun-18 12:00N 29°16' W 093°39'  

Dump ship's entire track history